sensor_id;sensor_type;location;lat;lon;timestamp;P1;durP1;ratioP1;P2;durP2;ratioP2
15563;SDS011;7883;52.554;13.364;2023-04-21T00:00:23;19.13;;;5.93;;
15563;SDS011;7883;52.554;13.364;2023-04-21T00:02:52;17.33;;;6.10;;
15563;SDS011;7883;52.554;13.364;2023-04-21T00:05:19;14.80;;;5.40;;
15563;SDS011;7883;52.554;13.364;2023-04-21T00:07:45;17.27;;;5.27;;
15563;SDS011;7883;52.554;13.364;2023-04-21T00:10:12;17.53;;;6.03;;
15563;SDS011;7883;52.554;13.364;2023-04-21T00:12:39;17.70;;;6.70;;
15563;SDS011;7883;52.554;13.364;2023-04-21T00:15:06;15.87;;;5.90;;
15563;SDS011;7883;52.554;13.364;2023-04-21T00:17:34;18.30;;;5.97;;
15563;SDS011;7883;52.554;13.364;2023-04-21T00:20:03;15.90;;;5.80;;
15563;SDS011;7883;52.554;13.364;2023-04-21T00:22:31;18.83;;;10.07;;
15563;SDS011;7883;52.554;13.364;2023-04-21T00:24:58;24.03;;;11.33;;
15563;SDS011;7883;52.554;13.364;2023-04-21T00:27:24;15.33;;;6.07;;
15563;SDS011;7883;52.554;13.364;2023-04-21T00:29:52;14.67;;;5.90;;
15563;SDS011;7883;52.554;13.364;2023-04-21T00:32:19;18.97;;;6.00;;
15563;SDS011;7883;52.554;13.364;2023-04-21T00:34:45;13.33;;;5.73;;
15563;SDS011;7883;52.554;13.364;2023-04-21T00:37:14;18.03;;;5.63;;
15563;SDS011;7883;52.554;13.364;2023-04-21T00:39:42;14.33;;;5.80;;
15563;SDS011;7883;52.554;13.364;2023-04-21T00:42:09;15.23;;;5.53;;
15563;SDS011;7883;52.554;13.364;2023-04-21T00:44:36;16.10;;;5.90;;
15563;SDS011;7883;52.554;13.364;2023-04-21T00:47:04;16.33;;;6.13;;
15563;SDS011;7883;52.554;13.364;2023-04-21T00:49:31;21.13;;;6.23;;
15563;SDS011;7883;52.554;13.364;2023-04-21T00:51:58;16.83;;;6.57;;
15563;SDS011;7883;52.554;13.364;2023-04-21T00:54:26;15.13;;;5.70;;
15563;SDS011;7883;52.554;13.364;2023-04-21T00:56:53;15.37;;;6.00;;
15563;SDS011;7883;52.554;13.364;2023-04-21T00:59:22;16.27;;;5.73;;
15563;SDS011;7883;52.554;13.364;2023-04-21T01:01:49;14.63;;;5.90;;
15563;SDS011;7883;52.554;13.364;2023-04-21T01:04:17;14.03;;;5.93;;
15563;SDS011;7883;52.554;13.364;2023-04-21T01:06:43;17.60;;;5.83;;
15563;SDS011;7883;52.554;13.364;2023-04-21T01:09:11;16.40;;;6.00;;
15563;SDS011;7883;52.554;13.364;2023-04-21T01:11:39;15.37;;;6.13;;
15563;SDS011;7883;52.554;13.364;2023-04-21T01:14:06;18.10;;;6.60;;
15563;SDS011;7883;52.554;13.364;2023-04-21T01:16:33;14.23;;;7.37;;
15563;SDS011;7883;52.554;13.364;2023-04-21T01:19:00;14.60;;;7.03;;
15563;SDS011;7883;52.554;13.364;2023-04-21T01:21:35;14.47;;;6.27;;
15563;SDS011;7883;52.554;13.364;2023-04-21T01:24:05;15.97;;;7.83;;
15563;SDS011;7883;52.554;13.364;2023-04-21T01:26:32;16.53;;;7.23;;
15563;SDS011;7883;52.554;13.364;2023-04-21T01:29:00;19.17;;;7.90;;
15563;SDS011;7883;52.554;13.364;2023-04-21T01:31:27;15.43;;;7.37;;
15563;SDS011;7883;52.554;13.364;2023-04-21T01:33:54;16.80;;;7.70;;
15563;SDS011;7883;52.554;13.364;2023-04-21T01:36:23;19.13;;;7.53;;
15563;SDS011;7883;52.554;13.364;2023-04-21T01:38:51;16.10;;;7.63;;
15563;SDS011;7883;52.554;13.364;2023-04-21T01:41:18;15.57;;;8.00;;
15563;SDS011;7883;52.554;13.364;2023-04-21T01:43:45;15.17;;;7.87;;
15563;SDS011;7883;52.554;13.364;2023-04-21T01:46:12;13.20;;;7.50;;
15563;SDS011;7883;52.554;13.364;2023-04-21T01:48:39;18.40;;;6.97;;
15563;SDS011;7883;52.554;13.364;2023-04-21T01:51:09;18.03;;;8.20;;
15563;SDS011;7883;52.554;13.364;2023-04-21T01:53:36;18.10;;;8.07;;
15563;SDS011;7883;52.554;13.364;2023-04-21T01:56:06;17.00;;;8.03;;
15563;SDS011;7883;52.554;13.364;2023-04-21T01:58:33;16.33;;;7.43;;
15563;SDS011;7883;52.554;13.364;2023-04-21T02:01:03;17.03;;;8.20;;
15563;SDS011;7883;52.554;13.364;2023-04-21T02:03:31;15.90;;;8.00;;
15563;SDS011;7883;52.554;13.364;2023-04-21T02:06:00;16.13;;;8.50;;
15563;SDS011;7883;52.554;13.364;2023-04-21T02:08:28;14.27;;;8.00;;
15563;SDS011;7883;52.554;13.364;2023-04-21T02:10:56;16.70;;;8.00;;
15563;SDS011;7883;52.554;13.364;2023-04-21T02:13:24;15.00;;;7.97;;
15563;SDS011;7883;52.554;13.364;2023-04-21T02:15:51;18.37;;;8.03;;
15563;SDS011;7883;52.554;13.364;2023-04-21T02:18:18;19.33;;;8.67;;
15563;SDS011;7883;52.554;13.364;2023-04-21T02:20:45;14.30;;;7.83;;
15563;SDS011;7883;52.554;13.364;2023-04-21T02:23:12;16.50;;;8.70;;
15563;SDS011;7883;52.554;13.364;2023-04-21T02:25:39;16.87;;;8.43;;
15563;SDS011;7883;52.554;13.364;2023-04-21T02:28:06;16.10;;;8.20;;
15563;SDS011;7883;52.554;13.364;2023-04-21T02:30:34;17.33;;;8.13;;
15563;SDS011;7883;52.554;13.364;2023-04-21T02:33:01;19.37;;;8.90;;
15563;SDS011;7883;52.554;13.364;2023-04-21T02:35:28;16.90;;;8.47;;
15563;SDS011;7883;52.554;13.364;2023-04-21T02:37:57;17.80;;;8.27;;
15563;SDS011;7883;52.554;13.364;2023-04-21T02:40:30;15.53;;;8.23;;
15563;SDS011;7883;52.554;13.364;2023-04-21T02:42:57;21.00;;;8.63;;
15563;SDS011;7883;52.554;13.364;2023-04-21T02:45:24;17.37;;;8.67;;
15563;SDS011;7883;52.554;13.364;2023-04-21T02:47:53;16.63;;;9.13;;
15563;SDS011;7883;52.554;13.364;2023-04-21T02:50:20;14.77;;;8.10;;
15563;SDS011;7883;52.554;13.364;2023-04-21T02:52:47;16.33;;;8.40;;
15563;SDS011;7883;52.554;13.364;2023-04-21T02:55:13;17.37;;;8.77;;
15563;SDS011;7883;52.554;13.364;2023-04-21T02:57:41;17.17;;;8.90;;
15563;SDS011;7883;52.554;13.364;2023-04-21T03:00:08;17.40;;;8.73;;
15563;SDS011;7883;52.554;13.364;2023-04-21T03:02:36;16.57;;;8.93;;
15563;SDS011;7883;52.554;13.364;2023-04-21T03:05:04;17.93;;;8.80;;
15563;SDS011;7883;52.554;13.364;2023-04-21T03:07:32;14.57;;;7.97;;
15563;SDS011;7883;52.554;13.364;2023-04-21T03:09:58;14.37;;;8.27;;
15563;SDS011;7883;52.554;13.364;2023-04-21T03:12:25;15.83;;;9.47;;
15563;SDS011;7883;52.554;13.364;2023-04-21T03:14:52;18.67;;;9.27;;
15563;SDS011;7883;52.554;13.364;2023-04-21T03:17:19;17.23;;;8.93;;
15563;SDS011;7883;52.554;13.364;2023-04-21T03:19:46;14.87;;;8.60;;
15563;SDS011;7883;52.554;13.364;2023-04-21T03:22:14;15.60;;;8.20;;
15563;SDS011;7883;52.554;13.364;2023-04-21T03:24:41;17.03;;;9.07;;
15563;SDS011;7883;52.554;13.364;2023-04-21T03:27:08;15.87;;;8.93;;
15563;SDS011;7883;52.554;13.364;2023-04-21T03:29:35;16.20;;;8.90;;
15563;SDS011;7883;52.554;13.364;2023-04-21T03:32:02;15.23;;;8.73;;
15563;SDS011;7883;52.554;13.364;2023-04-21T03:34:29;15.60;;;9.20;;
15563;SDS011;7883;52.554;13.364;2023-04-21T03:36:55;17.73;;;8.93;;
15563;SDS011;7883;52.554;13.364;2023-04-21T03:39:24;15.07;;;8.87;;
15563;SDS011;7883;52.554;13.364;2023-04-21T03:41:51;14.10;;;8.73;;
15563;SDS011;7883;52.554;13.364;2023-04-21T03:44:18;17.33;;;8.70;;
15563;SDS011;7883;52.554;13.364;2023-04-21T03:46:44;16.17;;;9.00;;
15563;SDS011;7883;52.554;13.364;2023-04-21T03:49:12;18.37;;;9.37;;
15563;SDS011;7883;52.554;13.364;2023-04-21T03:51:38;16.50;;;8.60;;
15563;SDS011;7883;52.554;13.364;2023-04-21T03:54:05;16.90;;;9.17;;
15563;SDS011;7883;52.554;13.364;2023-04-21T03:56:34;16.53;;;8.83;;
15563;SDS011;7883;52.554;13.364;2023-04-21T03:59:03;18.33;;;9.00;;
15563;SDS011;7883;52.554;13.364;2023-04-21T04:01:31;18.30;;;9.83;;
15563;SDS011;7883;52.554;13.364;2023-04-21T04:03:59;18.53;;;9.17;;
15563;SDS011;7883;52.554;13.364;2023-04-21T04:06:26;15.17;;;8.97;;
15563;SDS011;7883;52.554;13.364;2023-04-21T04:08:53;16.50;;;9.30;;
15563;SDS011;7883;52.554;13.364;2023-04-21T04:11:20;18.43;;;9.97;;
15563;SDS011;7883;52.554;13.364;2023-04-21T04:13:49;14.70;;;8.93;;
15563;SDS011;7883;52.554;13.364;2023-04-21T04:16:15;16.70;;;9.47;;
15563;SDS011;7883;52.554;13.364;2023-04-21T04:18:42;18.10;;;9.20;;
15563;SDS011;7883;52.554;13.364;2023-04-21T04:21:09;20.57;;;10.20;;
15563;SDS011;7883;52.554;13.364;2023-04-21T04:23:36;16.80;;;9.53;;
15563;SDS011;7883;52.554;13.364;2023-04-21T04:26:03;18.00;;;9.23;;
15563;SDS011;7883;52.554;13.364;2023-04-21T04:28:30;17.70;;;9.97;;
15563;SDS011;7883;52.554;13.364;2023-04-21T04:30:59;15.80;;;9.10;;
15563;SDS011;7883;52.554;13.364;2023-04-21T04:33:27;16.93;;;9.70;;
15563;SDS011;7883;52.554;13.364;2023-04-21T04:35:54;19.53;;;10.37;;
15563;SDS011;7883;52.554;13.364;2023-04-21T04:38:22;15.87;;;9.40;;
15563;SDS011;7883;52.554;13.364;2023-04-21T04:40:52;21.17;;;9.43;;
15563;SDS011;7883;52.554;13.364;2023-04-21T04:43:19;16.60;;;9.73;;
15563;SDS011;7883;52.554;13.364;2023-04-21T04:45:46;15.63;;;9.20;;
15563;SDS011;7883;52.554;13.364;2023-04-21T04:48:14;18.17;;;9.63;;
15563;SDS011;7883;52.554;13.364;2023-04-21T04:50:42;16.50;;;9.70;;
15563;SDS011;7883;52.554;13.364;2023-04-21T04:53:09;16.50;;;9.50;;
15563;SDS011;7883;52.554;13.364;2023-04-21T04:55:36;14.83;;;9.07;;
15563;SDS011;7883;52.554;13.364;2023-04-21T04:58:03;16.33;;;9.03;;
15563;SDS011;7883;52.554;13.364;2023-04-21T05:00:30;19.37;;;9.77;;
15563;SDS011;7883;52.554;13.364;2023-04-21T05:02:57;15.90;;;8.67;;
15563;SDS011;7883;52.554;13.364;2023-04-21T05:05:29;17.13;;;9.90;;
15563;SDS011;7883;52.554;13.364;2023-04-21T05:07:57;16.03;;;9.13;;
15563;SDS011;7883;52.554;13.364;2023-04-21T05:10:24;15.90;;;10.30;;
15563;SDS011;7883;52.554;13.364;2023-04-21T05:12:50;14.23;;;8.70;;
15563;SDS011;7883;52.554;13.364;2023-04-21T05:15:19;13.67;;;8.57;;
15563;SDS011;7883;52.554;13.364;2023-04-21T05:17:46;17.03;;;10.03;;
15563;SDS011;7883;52.554;13.364;2023-04-21T05:20:13;16.80;;;9.63;;
15563;SDS011;7883;52.554;13.364;2023-04-21T05:22:42;18.83;;;9.17;;
15563;SDS011;7883;52.554;13.364;2023-04-21T05:25:09;18.77;;;9.10;;
15563;SDS011;7883;52.554;13.364;2023-04-21T05:27:40;15.93;;;9.53;;
15563;SDS011;7883;52.554;13.364;2023-04-21T05:30:07;19.47;;;10.23;;
15563;SDS011;7883;52.554;13.364;2023-04-21T05:32:35;17.70;;;10.03;;
15563;SDS011;7883;52.554;13.364;2023-04-21T05:35:02;17.20;;;10.13;;
15563;SDS011;7883;52.554;13.364;2023-04-21T05:37:29;17.90;;;9.40;;
15563;SDS011;7883;52.554;13.364;2023-04-21T05:39:58;16.67;;;9.67;;
15563;SDS011;7883;52.554;13.364;2023-04-21T05:42:25;16.20;;;9.73;;
15563;SDS011;7883;52.554;13.364;2023-04-21T05:44:52;18.93;;;9.90;;
15563;SDS011;7883;52.554;13.364;2023-04-21T05:47:19;18.60;;;10.03;;
15563;SDS011;7883;52.554;13.364;2023-04-21T05:49:46;18.23;;;9.17;;
15563;SDS011;7883;52.554;13.364;2023-04-21T05:52:17;20.10;;;9.47;;
15563;SDS011;7883;52.554;13.364;2023-04-21T05:54:44;15.77;;;9.37;;
15563;SDS011;7883;52.554;13.364;2023-04-21T05:57:13;18.57;;;9.50;;
15563;SDS011;7883;52.554;13.364;2023-04-21T05:59:41;18.13;;;10.13;;
15563;SDS011;7883;52.554;13.364;2023-04-21T06:02:09;17.17;;;9.37;;
15563;SDS011;7883;52.554;13.364;2023-04-21T06:04:36;14.70;;;9.20;;
15563;SDS011;7883;52.554;13.364;2023-04-21T06:07:03;18.50;;;9.60;;
15563;SDS011;7883;52.554;13.364;2023-04-21T06:09:31;16.30;;;9.77;;
15563;SDS011;7883;52.554;13.364;2023-04-21T06:11:59;14.20;;;8.80;;
15563;SDS011;7883;52.554;13.364;2023-04-21T06:14:28;16.17;;;9.53;;
15563;SDS011;7883;52.554;13.364;2023-04-21T06:16:54;18.77;;;9.53;;
15563;SDS011;7883;52.554;13.364;2023-04-21T06:19:21;16.03;;;9.73;;
15563;SDS011;7883;52.554;13.364;2023-04-21T06:21:48;15.50;;;9.40;;
15563;SDS011;7883;52.554;13.364;2023-04-21T06:24:15;19.40;;;9.10;;
15563;SDS011;7883;52.554;13.364;2023-04-21T06:26:48;14.77;;;9.50;;
15563;SDS011;7883;52.554;13.364;2023-04-21T06:29:16;17.13;;;9.50;;
15563;SDS011;7883;52.554;13.364;2023-04-21T06:31:44;17.53;;;9.73;;
15563;SDS011;7883;52.554;13.364;2023-04-21T06:34:11;19.83;;;9.50;;
15563;SDS011;7883;52.554;13.364;2023-04-21T06:36:38;16.07;;;9.63;;
15563;SDS011;7883;52.554;13.364;2023-04-21T06:39:05;18.07;;;9.63;;
15563;SDS011;7883;52.554;13.364;2023-04-21T06:41:32;18.93;;;9.70;;
15563;SDS011;7883;52.554;13.364;2023-04-21T06:43:59;16.97;;;9.93;;
15563;SDS011;7883;52.554;13.364;2023-04-21T06:46:26;15.87;;;9.47;;
15563;SDS011;7883;52.554;13.364;2023-04-21T06:48:54;19.00;;;10.80;;
15563;SDS011;7883;52.554;13.364;2023-04-21T06:51:21;17.33;;;8.83;;
15563;SDS011;7883;52.554;13.364;2023-04-21T06:53:48;16.13;;;9.07;;
15563;SDS011;7883;52.554;13.364;2023-04-21T06:56:15;14.23;;;8.80;;
15563;SDS011;7883;52.554;13.364;2023-04-21T06:58:42;17.10;;;8.97;;
15563;SDS011;7883;52.554;13.364;2023-04-21T07:01:10;16.40;;;10.07;;
15563;SDS011;7883;52.554;13.364;2023-04-21T07:03:38;15.50;;;9.30;;
15563;SDS011;7883;52.554;13.364;2023-04-21T07:06:06;17.57;;;9.20;;
15563;SDS011;7883;52.554;13.364;2023-04-21T07:08:33;16.00;;;9.03;;
15563;SDS011;7883;52.554;13.364;2023-04-21T07:11:00;17.77;;;9.13;;
15563;SDS011;7883;52.554;13.364;2023-04-21T07:13:27;14.53;;;8.70;;
15563;SDS011;7883;52.554;13.364;2023-04-21T07:15:54;15.77;;;8.80;;
15563;SDS011;7883;52.554;13.364;2023-04-21T07:18:21;16.90;;;9.20;;
15563;SDS011;7883;52.554;13.364;2023-04-21T07:20:48;16.37;;;9.00;;
15563;SDS011;7883;52.554;13.364;2023-04-21T07:23:16;15.97;;;8.63;;
15563;SDS011;7883;52.554;13.364;2023-04-21T07:25:43;15.37;;;8.77;;
15563;SDS011;7883;52.554;13.364;2023-04-21T07:28:10;17.03;;;8.60;;
15563;SDS011;7883;52.554;13.364;2023-04-21T07:30:39;18.20;;;9.07;;
15563;SDS011;7883;52.554;13.364;2023-04-21T07:33:06;21.03;;;9.27;;
15563;SDS011;7883;52.554;13.364;2023-04-21T07:35:34;15.27;;;8.87;;
15563;SDS011;7883;52.554;13.364;2023-04-21T07:38:01;14.83;;;9.07;;
15563;SDS011;7883;52.554;13.364;2023-04-21T07:40:29;16.17;;;9.30;;
15563;SDS011;7883;52.554;13.364;2023-04-21T07:42:56;19.90;;;9.10;;
15563;SDS011;7883;52.554;13.364;2023-04-21T07:45:23;17.73;;;9.50;;
15563;SDS011;7883;52.554;13.364;2023-04-21T07:47:50;15.73;;;9.20;;
15563;SDS011;7883;52.554;13.364;2023-04-21T07:50:17;16.13;;;8.40;;
15563;SDS011;7883;52.554;13.364;2023-04-21T07:52:44;19.53;;;9.50;;
15563;SDS011;7883;52.554;13.364;2023-04-21T07:55:12;14.80;;;9.00;;
15563;SDS011;7883;52.554;13.364;2023-04-21T07:57:41;16.43;;;8.70;;
15563;SDS011;7883;52.554;13.364;2023-04-21T08:00:09;15.77;;;8.13;;
15563;SDS011;7883;52.554;13.364;2023-04-21T08:02:37;15.60;;;9.27;;
15563;SDS011;7883;52.554;13.364;2023-04-21T08:05:04;16.00;;;9.43;;
15563;SDS011;7883;52.554;13.364;2023-04-21T08:07:31;14.40;;;8.47;;
15563;SDS011;7883;52.554;13.364;2023-04-21T08:09:58;19.13;;;9.77;;
15563;SDS011;7883;52.554;13.364;2023-04-21T08:12:26;18.77;;;8.93;;
15563;SDS011;7883;52.554;13.364;2023-04-21T08:14:55;16.67;;;8.57;;
15563;SDS011;7883;52.554;13.364;2023-04-21T08:17:22;16.03;;;9.00;;
15563;SDS011;7883;52.554;13.364;2023-04-21T08:19:49;18.37;;;8.90;;
15563;SDS011;7883;52.554;13.364;2023-04-21T08:22:16;16.73;;;8.10;;
15563;SDS011;7883;52.554;13.364;2023-04-21T08:24:43;15.23;;;8.47;;
15563;SDS011;7883;52.554;13.364;2023-04-21T08:27:10;17.03;;;9.10;;
15563;SDS011;7883;52.554;13.364;2023-04-21T08:29:37;14.80;;;8.20;;
15563;SDS011;7883;52.554;13.364;2023-04-21T08:32:05;17.10;;;8.33;;
15563;SDS011;7883;52.554;13.364;2023-04-21T08:34:32;15.00;;;8.23;;
15563;SDS011;7883;52.554;13.364;2023-04-21T08:36:59;14.63;;;8.63;;
15563;SDS011;7883;52.554;13.364;2023-04-21T08:39:26;15.33;;;8.87;;
15563;SDS011;7883;52.554;13.364;2023-04-21T08:41:54;19.97;;;8.87;;
15563;SDS011;7883;52.554;13.364;2023-04-21T08:44:23;11.90;;;7.47;;
15563;SDS011;7883;52.554;13.364;2023-04-21T08:46:50;15.33;;;8.07;;
15563;SDS011;7883;52.554;13.364;2023-04-21T08:49:19;12.93;;;7.43;;
15563;SDS011;7883;52.554;13.364;2023-04-21T08:51:47;15.73;;;8.23;;
15563;SDS011;7883;52.554;13.364;2023-04-21T08:54:15;14.03;;;7.93;;
15563;SDS011;7883;52.554;13.364;2023-04-21T08:56:42;14.87;;;8.23;;
15563;SDS011;7883;52.554;13.364;2023-04-21T08:59:09;17.03;;;7.47;;
15563;SDS011;7883;52.554;13.364;2023-04-21T09:04:40;15.57;;;8.50;;
15563;SDS011;7883;52.554;13.364;2023-04-21T09:07:08;14.53;;;8.30;;
15563;SDS011;7883;52.554;13.364;2023-04-21T09:09:50;15.37;;;7.40;;
15563;SDS011;7883;52.554;13.364;2023-04-21T09:12:17;25.10;;;8.53;;
15563;SDS011;7883;52.554;13.364;2023-04-21T09:14:47;17.50;;;8.53;;
15563;SDS011;7883;52.554;13.364;2023-04-21T09:17:15;12.07;;;7.43;;
15563;SDS011;7883;52.554;13.364;2023-04-21T09:19:44;14.60;;;7.37;;
15563;SDS011;7883;52.554;13.364;2023-04-21T09:22:13;15.57;;;7.47;;
15563;SDS011;7883;52.554;13.364;2023-04-21T09:24:43;13.23;;;7.80;;
15563;SDS011;7883;52.554;13.364;2023-04-21T09:27:12;17.43;;;8.43;;
15563;SDS011;7883;52.554;13.364;2023-04-21T09:29:44;11.93;;;6.97;;
15563;SDS011;7883;52.554;13.364;2023-04-21T09:32:15;15.80;;;8.60;;
15563;SDS011;7883;52.554;13.364;2023-04-21T09:34:45;15.67;;;9.37;;
15563;SDS011;7883;52.554;13.364;2023-04-21T09:37:12;16.00;;;7.93;;
15563;SDS011;7883;52.554;13.364;2023-04-21T09:39:43;17.67;;;7.23;;
15563;SDS011;7883;52.554;13.364;2023-04-21T09:42:12;12.57;;;6.70;;
15563;SDS011;7883;52.554;13.364;2023-04-21T09:44:39;14.23;;;7.67;;
15563;SDS011;7883;52.554;13.364;2023-04-21T09:47:07;13.63;;;7.47;;
15563;SDS011;7883;52.554;13.364;2023-04-21T09:49:38;13.77;;;7.17;;
15563;SDS011;7883;52.554;13.364;2023-04-21T09:52:10;14.23;;;7.07;;
15563;SDS011;7883;52.554;13.364;2023-04-21T09:54:42;13.03;;;7.00;;
15563;SDS011;7883;52.554;13.364;2023-04-21T09:57:16;14.20;;;7.77;;
15563;SDS011;7883;52.554;13.364;2023-04-21T09:59:47;13.63;;;7.23;;
15563;SDS011;7883;52.554;13.364;2023-04-21T10:02:21;15.93;;;7.33;;
15563;SDS011;7883;52.554;13.364;2023-04-21T10:04:52;14.70;;;6.97;;
15563;SDS011;7883;52.554;13.364;2023-04-21T10:07:21;12.80;;;6.80;;
15563;SDS011;7883;52.554;13.364;2023-04-21T10:09:49;11.53;;;6.30;;
15563;SDS011;7883;52.554;13.364;2023-04-21T10:12:19;14.30;;;7.43;;
15563;SDS011;7883;52.554;13.364;2023-04-21T10:14:49;15.60;;;7.00;;
15563;SDS011;7883;52.554;13.364;2023-04-21T10:17:17;14.70;;;5.97;;
15563;SDS011;7883;52.554;13.364;2023-04-21T10:19:47;11.77;;;6.47;;
15563;SDS011;7883;52.554;13.364;2023-04-21T10:22:19;11.47;;;6.17;;
15563;SDS011;7883;52.554;13.364;2023-04-21T10:24:54;13.63;;;6.80;;
15563;SDS011;7883;52.554;13.364;2023-04-21T10:27:31;13.53;;;6.40;;
15563;SDS011;7883;52.554;13.364;2023-04-21T10:29:59;11.83;;;6.13;;
15563;SDS011;7883;52.554;13.364;2023-04-21T10:32:40;13.70;;;5.90;;
15563;SDS011;7883;52.554;13.364;2023-04-21T10:35:09;13.77;;;6.07;;
15563;SDS011;7883;52.554;13.364;2023-04-21T10:37:38;10.60;;;5.77;;
15563;SDS011;7883;52.554;13.364;2023-04-21T10:40:07;12.17;;;6.20;;
15563;SDS011;7883;52.554;13.364;2023-04-21T10:43:03;11.73;;;6.83;;
15563;SDS011;7883;52.554;13.364;2023-04-21T10:45:30;13.27;;;6.73;;
15563;SDS011;7883;52.554;13.364;2023-04-21T10:47:58;12.93;;;6.30;;
15563;SDS011;7883;52.554;13.364;2023-04-21T10:50:28;11.97;;;6.20;;
15563;SDS011;7883;52.554;13.364;2023-04-21T10:53:05;10.10;;;5.80;;
15563;SDS011;7883;52.554;13.364;2023-04-21T10:55:35;11.40;;;6.30;;
15563;SDS011;7883;52.554;13.364;2023-04-21T10:58:03;15.80;;;6.40;;
15563;SDS011;7883;52.554;13.364;2023-04-21T11:00:33;14.40;;;8.00;;
15563;SDS011;7883;52.554;13.364;2023-04-21T11:03:03;12.70;;;6.27;;
15563;SDS011;7883;52.554;13.364;2023-04-21T11:05:33;13.47;;;6.30;;
15563;SDS011;7883;52.554;13.364;2023-04-21T11:08:07;11.30;;;6.00;;
15563;SDS011;7883;52.554;13.364;2023-04-21T11:10:44;14.53;;;6.40;;
15563;SDS011;7883;52.554;13.364;2023-04-21T11:13:16;15.40;;;8.97;;
15563;SDS011;7883;52.554;13.364;2023-04-21T11:15:54;13.70;;;6.17;;
15563;SDS011;7883;52.554;13.364;2023-04-21T11:18:33;11.53;;;5.90;;
15563;SDS011;7883;52.554;13.364;2023-04-21T11:21:09;10.73;;;5.70;;
15563;SDS011;7883;52.554;13.364;2023-04-21T11:23:50;13.83;;;6.47;;
15563;SDS011;7883;52.554;13.364;2023-04-21T11:26:18;12.30;;;6.07;;
15563;SDS011;7883;52.554;13.364;2023-04-21T11:28:55;10.80;;;5.57;;
15563;SDS011;7883;52.554;13.364;2023-04-21T11:31:27;12.83;;;5.70;;
15563;SDS011;7883;52.554;13.364;2023-04-21T11:33:54;12.07;;;6.00;;
15563;SDS011;7883;52.554;13.364;2023-04-21T11:36:22;12.10;;;6.10;;
15563;SDS011;7883;52.554;13.364;2023-04-21T11:38:50;10.77;;;5.70;;
15563;SDS011;7883;52.554;13.364;2023-04-21T11:41:19;13.50;;;6.43;;
15563;SDS011;7883;52.554;13.364;2023-04-21T11:43:46;13.17;;;5.30;;
15563;SDS011;7883;52.554;13.364;2023-04-21T11:46:15;25.13;;;15.20;;
15563;SDS011;7883;52.554;13.364;2023-04-21T11:48:43;13.27;;;5.80;;
15563;SDS011;7883;52.554;13.364;2023-04-21T11:51:15;11.63;;;5.53;;
15563;SDS011;7883;52.554;13.364;2023-04-21T11:53:42;14.57;;;5.47;;
15563;SDS011;7883;52.554;13.364;2023-04-21T11:56:15;12.43;;;6.30;;
15563;SDS011;7883;52.554;13.364;2023-04-21T11:58:43;10.83;;;6.00;;
15563;SDS011;7883;52.554;13.364;2023-04-21T12:01:10;11.63;;;6.47;;
15563;SDS011;7883;52.554;13.364;2023-04-21T12:03:41;22.13;;;16.40;;
15563;SDS011;7883;52.554;13.364;2023-04-21T12:06:09;11.00;;;5.90;;
15563;SDS011;7883;52.554;13.364;2023-04-21T12:08:36;15.17;;;6.00;;
15563;SDS011;7883;52.554;13.364;2023-04-21T12:11:06;12.60;;;6.17;;
15563;SDS011;7883;52.554;13.364;2023-04-21T12:13:34;16.83;;;6.40;;
15563;SDS011;7883;52.554;13.364;2023-04-21T12:16:05;14.60;;;7.93;;
15563;SDS011;7883;52.554;13.364;2023-04-21T12:18:34;12.77;;;6.80;;
15563;SDS011;7883;52.554;13.364;2023-04-21T12:21:01;13.07;;;6.70;;
15563;SDS011;7883;52.554;13.364;2023-04-21T12:23:30;12.57;;;6.27;;
15563;SDS011;7883;52.554;13.364;2023-04-21T12:25:58;14.10;;;7.33;;
15563;SDS011;7883;52.554;13.364;2023-04-21T12:28:26;14.83;;;6.97;;
15563;SDS011;7883;52.554;13.364;2023-04-21T12:30:59;11.27;;;6.70;;
15563;SDS011;7883;52.554;13.364;2023-04-21T12:33:29;11.60;;;5.83;;
15563;SDS011;7883;52.554;13.364;2023-04-21T12:35:58;9.63;;;5.70;;
15563;SDS011;7883;52.554;13.364;2023-04-21T12:38:25;9.90;;;5.80;;
15563;SDS011;7883;52.554;13.364;2023-04-21T12:40:52;12.87;;;6.17;;
15563;SDS011;7883;52.554;13.364;2023-04-21T12:43:19;13.20;;;5.37;;
15563;SDS011;7883;52.554;13.364;2023-04-21T12:45:46;12.47;;;5.90;;
15563;SDS011;7883;52.554;13.364;2023-04-21T12:48:15;12.73;;;5.57;;
15563;SDS011;7883;52.554;13.364;2023-04-21T12:50:42;12.13;;;5.43;;
15563;SDS011;7883;52.554;13.364;2023-04-21T12:53:10;9.70;;;5.37;;
15563;SDS011;7883;52.554;13.364;2023-04-21T12:55:37;10.83;;;4.90;;
15563;SDS011;7883;52.554;13.364;2023-04-21T12:58:05;12.53;;;5.73;;
15563;SDS011;7883;52.554;13.364;2023-04-21T13:00:32;11.10;;;5.30;;
15563;SDS011;7883;52.554;13.364;2023-04-21T13:03:00;9.03;;;5.27;;
15563;SDS011;7883;52.554;13.364;2023-04-21T13:05:29;14.50;;;5.17;;
15563;SDS011;7883;52.554;13.364;2023-04-21T13:07:59;10.00;;;5.10;;
15563;SDS011;7883;52.554;13.364;2023-04-21T13:10:34;9.50;;;4.97;;
15563;SDS011;7883;52.554;13.364;2023-04-21T13:13:07;9.20;;;4.70;;
15563;SDS011;7883;52.554;13.364;2023-04-21T13:15:39;11.57;;;5.50;;
15563;SDS011;7883;52.554;13.364;2023-04-21T13:18:07;8.97;;;4.60;;
15563;SDS011;7883;52.554;13.364;2023-04-21T13:20:36;14.13;;;4.93;;
15563;SDS011;7883;52.554;13.364;2023-04-21T13:23:05;11.83;;;4.83;;
15563;SDS011;7883;52.554;13.364;2023-04-21T13:25:35;12.57;;;5.00;;
15563;SDS011;7883;52.554;13.364;2023-04-21T13:28:09;10.63;;;5.40;;
15563;SDS011;7883;52.554;13.364;2023-04-21T13:30:38;8.40;;;4.80;;
15563;SDS011;7883;52.554;13.364;2023-04-21T13:33:05;14.20;;;5.63;;
15563;SDS011;7883;52.554;13.364;2023-04-21T13:35:33;12.47;;;5.10;;
15563;SDS011;7883;52.554;13.364;2023-04-21T13:38:01;8.57;;;5.10;;
15563;SDS011;7883;52.554;13.364;2023-04-21T13:40:30;10.37;;;5.20;;
15563;SDS011;7883;52.554;13.364;2023-04-21T13:43:02;9.93;;;5.27;;
15563;SDS011;7883;52.554;13.364;2023-04-21T13:45:29;10.10;;;5.70;;
15563;SDS011;7883;52.554;13.364;2023-04-21T13:47:56;9.73;;;4.97;;
15563;SDS011;7883;52.554;13.364;2023-04-21T13:50:23;11.93;;;5.60;;
15563;SDS011;7883;52.554;13.364;2023-04-21T13:52:50;10.70;;;4.80;;
15563;SDS011;7883;52.554;13.364;2023-04-21T13:55:19;9.23;;;4.73;;
15563;SDS011;7883;52.554;13.364;2023-04-21T13:57:46;13.47;;;6.00;;
15563;SDS011;7883;52.554;13.364;2023-04-21T14:00:13;12.90;;;5.00;;
15563;SDS011;7883;52.554;13.364;2023-04-21T14:02:41;14.23;;;5.47;;
15563;SDS011;7883;52.554;13.364;2023-04-21T14:05:08;11.93;;;5.40;;
15563;SDS011;7883;52.554;13.364;2023-04-21T14:07:34;12.37;;;5.47;;
15563;SDS011;7883;52.554;13.364;2023-04-21T14:10:03;14.73;;;5.10;;
15563;SDS011;7883;52.554;13.364;2023-04-21T14:12:32;10.67;;;5.30;;
15563;SDS011;7883;52.554;13.364;2023-04-21T14:14:59;9.83;;;4.80;;
15563;SDS011;7883;52.554;13.364;2023-04-21T14:17:26;9.43;;;5.03;;
15563;SDS011;7883;52.554;13.364;2023-04-21T14:19:53;11.27;;;4.80;;
15563;SDS011;7883;52.554;13.364;2023-04-21T14:22:20;10.03;;;5.13;;
15563;SDS011;7883;52.554;13.364;2023-04-21T14:24:47;7.97;;;4.63;;
15563;SDS011;7883;52.554;13.364;2023-04-21T14:27:14;9.20;;;4.87;;
15563;SDS011;7883;52.554;13.364;2023-04-21T14:29:42;8.37;;;4.63;;
15563;SDS011;7883;52.554;13.364;2023-04-21T14:32:10;9.63;;;5.27;;
15563;SDS011;7883;52.554;13.364;2023-04-21T14:34:36;11.27;;;5.10;;
15563;SDS011;7883;52.554;13.364;2023-04-21T14:37:03;10.50;;;5.30;;
15563;SDS011;7883;52.554;13.364;2023-04-21T14:39:31;10.07;;;4.93;;
15563;SDS011;7883;52.554;13.364;2023-04-21T14:41:58;12.80;;;5.37;;
15563;SDS011;7883;52.554;13.364;2023-04-21T14:44:25;11.63;;;5.30;;